Time;durP1;ratioP1;P1;durP2;ratioP2;P2;SDS_P1;SDS_P2;PMS_P1;PMS_P2;Temp;Humidity;BMP_temperature;BMP_pressure;BME280_temperature;BME280_humidity;BME280_pressure;Samples;Min_cycle;Max_cycle;Signal;HPM_P1;HPM_P2
2024/01/22 00:01:58;;;;;;;2.28;1.45;;;7.40;99.90;;;;;;5092167;28;20233;-54
2024/01/22 00:04:24;;;;;;;3.13;1.73;;;7.40;99.90;;;;;;5092376;28;20292;-54
2024/01/22 00:06:52;;;;;;;4.32;2.20;;;7.40;99.90;;;;;;5092562;28;20251;-54
2024/01/22 00:09:18;;;;;;;5.28;1.75;;;7.50;99.90;;;;;;5092489;28;20685;-54
2024/01/22 00:11:43;;;;;;;3.03;1.73;;;7.40;99.90;;;;;;5091999;28;20244;-54
2024/01/22 00:14:09;;;;;;;4.25;1.70;;;7.40;99.90;;;;;;5091970;28;20165;-53
2024/01/22 00:16:39;;;;;;;4.93;1.88;;;7.50;99.90;;;;;;5091836;28;20252;-53
2024/01/22 00:19:05;;;;;;;4.13;1.88;;;7.50;99.90;;;;;;5091373;28;20601;-54
2024/01/22 00:21:31;;;;;;;6.75;1.80;;;7.50;99.90;;;;;;5091727;28;20608;-55
2024/01/22 00:23:56;;;;;;;2.80;1.70;;;7.50;99.90;;;;;;5091823;28;20197;-52
2024/01/22 00:26:22;;;;;;;4.47;1.50;;;7.50;99.90;;;;;;5092061;28;20174;-52
2024/01/22 00:28:48;;;;;;;5.55;2.75;;;7.50;99.90;;;;;;5092180;28;20173;-52
2024/01/22 00:31:13;;;;;;;5.63;1.92;;;7.60;99.90;;;;;;5091570;28;20529;-52
2024/01/22 00:33:42;;;;;;;4.47;1.73;;;7.60;99.90;;;;;;5091633;28;20573;-51
2024/01/22 00:36:11;;;;;;;2.15;1.38;;;7.50;99.90;;;;;;5090514;28;20169;-51
2024/01/22 00:38:36;;;;;;;6.70;2.15;;;7.60;99.90;;;;;;5091519;28;20613;-52
2024/01/22 00:41:04;;;;;;;3.58;1.75;;;7.70;99.90;;;;;;5091399;28;20226;-52
2024/01/22 00:43:29;;;;;;;3.55;1.83;;;7.60;99.90;;;;;;5091442;28;20218;-52
2024/01/22 00:45:55;;;;;;;3.85;1.92;;;7.60;99.90;;;;;;5091433;28;20521;-52
2024/01/22 00:48:20;;;;;;;2.97;1.58;;;7.60;99.90;;;;;;5091446;28;20173;-53
2024/01/22 00:50:46;;;;;;;3.63;1.70;;;7.60;99.90;;;;;;5091931;28;20168;-53
2024/01/22 00:53:12;;;;;;;5.03;1.67;;;7.60;99.90;;;;;;5091364;28;20499;-52
2024/01/22 00:55:37;;;;;;;3.40;2.20;;;7.70;99.90;;;;;;5091244;28;20252;-52
2024/01/22 00:58:03;;;;;;;2.53;1.27;;;7.70;99.90;;;;;;5091293;28;20678;-54
2024/01/22 01:00:28;;;;;;;4.43;1.80;;;7.80;99.90;;;;;;5091511;28;20172;-53
2024/01/22 01:02:54;;;;;;;2.20;1.83;;;7.80;99.90;;;;;;5091259;28;20204;-54
2024/01/22 01:05:19;;;;;;;2.97;1.95;;;7.80;99.90;;;;;;5091754;28;20215;-54
2024/01/22 01:07:45;;;;;;;2.33;1.80;;;7.80;99.90;;;;;;5091193;28;20169;-54
2024/01/22 01:10:10;;;;;;;3.58;1.67;;;7.80;99.90;;;;;;5091161;28;20169;-54
2024/01/22 01:12:37;;;;;;;2.75;1.50;;;7.80;99.90;;;;;;5091174;28;20169;-54
2024/01/22 01:15:04;;;;;;;4.25;1.60;;;7.80;99.90;;;;;;5091313;28;20169;-52
2024/01/22 01:17:31;;;;;;;5.22;1.70;;;7.90;99.90;;;;;;5091070;28;20621;-52
2024/01/22 01:19:56;;;;;;;4.22;1.77;;;7.90;99.90;;;;;;5091026;28;20652;-52
2024/01/22 01:22:22;;;;;;;4.68;1.77;;;7.90;99.90;;;;;;5091026;28;20279;-52
2024/01/22 01:24:47;;;;;;;2.10;1.35;;;8.00;99.90;;;;;;5091526;28;20165;-52
2024/01/22 01:27:14;;;;;;;2.10;1.52;;;7.90;99.90;;;;;;5091012;28;20256;-52
2024/01/22 01:29:40;;;;;;;3.33;1.63;;;7.80;99.90;;;;;;5091754;28;20991;-52
2024/01/22 01:32:06;;;;;;;4.60;2.50;;;8.00;99.90;;;;;;5094957;28;20252;-52
2024/01/22 01:34:31;;;;;;;1.52;1.40;;;8.00;99.90;;;;;;5094950;28;20169;-52
2024/01/22 01:36:57;;;;;;;1.92;1.38;;;7.90;99.90;;;;;;5094857;28;20173;-52
2024/01/22 01:39:22;;;;;;;2.40;1.33;;;8.00;99.90;;;;;;5094901;28;20169;-52
2024/01/22 01:41:51;;;;;;;5.75;1.80;;;8.00;99.90;;;;;;5095201;28;20258;-52
2024/01/22 01:44:17;;;;;;;2.60;1.80;;;8.00;99.90;;;;;;5095380;28;20195;-53
2024/01/22 01:46:42;;;;;;;4.22;1.70;;;8.10;99.90;;;;;;5094681;28;20161;-52
2024/01/22 01:49:08;;;;;;;4.00;1.60;;;8.20;99.90;;;;;;5094953;28;20211;-52
2024/01/22 01:51:35;;;;;;;1.92;1.63;;;8.10;99.90;;;;;;5094605;28;20176;-53
2024/01/22 01:54:02;;;;;;;5.82;2.35;;;8.10;99.90;;;;;;5094566;28;20252;-52
2024/01/22 01:56:27;;;;;;;4.22;2.25;;;8.10;99.90;;;;;;5094366;28;20665;-54
2024/01/22 01:58:54;;;;;;;6.50;2.00;;;7.90;99.90;;;;;;5094576;28;20174;-54
2024/01/22 02:01:20;;;;;;;2.83;1.65;;;7.90;99.90;;;;;;5095132;28;20203;-54
2024/01/22 02:03:46;;;;;;;1.85;1.40;;;7.80;99.90;;;;;;5094930;28;20211;-52
2024/01/22 02:06:12;;;;;;;1.80;1.55;;;7.90;99.90;;;;;;5094377;28;20165;-54
2024/01/22 02:08:37;;;;;;;3.95;1.40;;;7.80;99.90;;;;;;5094321;28;20201;-54
2024/01/22 02:11:03;;;;;;;4.10;2.33;;;7.90;99.90;;;;;;5094289;28;20192;-52
2024/01/22 02:13:29;;;;;;;2.47;1.65;;;8.00;99.90;;;;;;5094466;28;20180;-52
2024/01/22 02:15:55;;;;;;;7.53;2.85;;;8.10;99.90;;;;;;5094136;28;20216;-52
2024/01/22 02:18:20;;;;;;;6.07;2.40;;;8.00;99.90;;;;;;5094159;28;20169;-52
2024/01/22 02:20:46;;;;;;;3.50;2.30;;;8.10;99.90;;;;;;5094588;28;20191;-52
2024/01/22 02:23:11;;;;;;;5.55;2.10;;;8.00;99.90;;;;;;5093932;28;20723;-52
2024/01/22 02:25:37;;;;;;;3.95;2.10;;;8.00;99.90;;;;;;5094006;28;20621;-52
2024/01/22 02:28:03;;;;;;;6.68;2.50;;;8.10;99.90;;;;;;5093898;28;20632;-52
2024/01/22 02:30:28;;;;;;;4.90;1.83;;;8.00;99.90;;;;;;5094176;28;20707;-52
2024/01/22 02:32:54;;;;;;;3.35;1.90;;;8.00;99.90;;;;;;5093806;28;20177;-52
2024/01/22 02:35:21;;;;;;;1.40;1.30;;;8.00;99.90;;;;;;5094341;28;20204;-52
2024/01/22 02:37:47;;;;;;;5.00;1.67;;;8.20;99.90;;;;;;5094462;28;20173;-52
2024/01/22 02:40:13;;;;;;;3.25;1.80;;;8.20;99.90;;;;;;5093544;28;20179;-52
2024/01/22 02:42:39;;;;;;;2.13;1.55;;;8.20;99.90;;;;;;5093557;28;20606;-52
2024/01/22 02:45:04;;;;;;;2.67;1.50;;;8.30;99.90;;;;;;5093605;28;20161;-52
2024/01/22 02:47:30;;;;;;;2.95;1.58;;;8.40;99.90;;;;;;5093696;28;20194;-53
2024/01/22 02:49:56;;;;;;;2.38;1.77;;;8.30;99.90;;;;;;5093556;28;20576;-53
2024/01/22 02:52:21;;;;;;;4.40;1.48;;;8.30;99.90;;;;;;5093505;28;20176;-52
2024/01/22 02:54:47;;;;;;;3.33;1.52;;;8.20;99.90;;;;;;5093943;28;20157;-54
2024/01/22 02:57:14;;;;;;;6.25;2.13;;;8.20;99.90;;;;;;5093259;28;20217;-54
2024/01/22 02:59:40;;;;;;;3.70;1.80;;;8.20;99.90;;;;;;5093366;28;20161;-53
2024/01/22 03:02:06;;;;;;;3.92;1.70;;;8.30;99.90;;;;;;5093438;28;20241;-54
2024/01/22 03:04:32;;;;;;;3.30;1.77;;;8.40;99.90;;;;;;5093301;28;20260;-53
2024/01/22 03:06:57;;;;;;;1.50;1.05;;;8.50;99.90;;;;;;5093463;28;20161;-53
2024/01/22 03:09:23;;;;;;;4.28;1.70;;;8.60;99.90;;;;;;5093026;28;20170;-52
2024/01/22 03:11:48;;;;;;;2.38;1.13;;;8.60;99.90;;;;;;5093329;28;20169;-53
2024/01/22 03:14:14;;;;;;;2.83;1.55;;;8.60;99.90;;;;;;5093029;28;20170;-53
2024/01/22 03:16:39;;;;;;;5.03;1.73;;;8.70;99.90;;;;;;5092973;28;20170;-53
2024/01/22 03:19:05;;;;;;;8.45;2.33;;;8.70;99.90;;;;;;5093057;28;20356;-53
2024/01/22 03:21:31;;;;;;;4.43;1.70;;;8.70;99.90;;;;;;5093075;28;20618;-53
2024/01/22 03:23:56;;;;;;;5.38;1.95;;;8.60;99.90;;;;;;5092849;28;20610;-52
2024/01/22 03:26:22;;;;;;;4.78;2.20;;;8.70;99.90;;;;;;5093036;28;20226;-52
2024/01/22 03:28:49;;;;;;;3.15;1.83;;;8.60;99.90;;;;;;5093309;28;20162;-52
2024/01/22 03:31:29;;;;;;;3.58;1.83;;;8.70;99.90;;;;;;5092628;28;20245;-52
2024/01/22 03:33:55;;;;;;;2.22;1.67;;;8.70;99.90;;;;;;5092721;28;20165;-53
2024/01/22 03:36:22;;;;;;;3.70;2.00;;;8.70;99.90;;;;;;5092692;28;20185;-51
2024/01/22 03:38:48;;;;;;;2.95;1.80;;;8.70;99.90;;;;;;5093283;28;20588;-52
2024/01/22 03:41:14;;;;;;;7.57;1.95;;;8.70;99.90;;;;;;5092434;28;20192;-52
2024/01/22 03:43:43;;;;;;;4.53;2.25;;;8.70;99.90;;;;;;5092469;28;20205;-52
2024/01/22 03:46:13;;;;;;;6.20;2.50;;;8.80;99.90;;;;;;5092390;28;20248;-51
2024/01/22 03:48:39;;;;;;;4.25;1.90;;;8.70;99.90;;;;;;5092366;28;20613;-53
2024/01/22 03:51:05;;;;;;;4.80;1.85;;;8.70;99.90;;;;;;5092382;28;20528;-53
2024/01/22 03:53:31;;;;;;;3.70;1.58;;;8.80;99.90;;;;;;5091569;28;20165;-53
2024/01/22 03:55:56;;;;;;;4.38;1.52;;;8.80;99.90;;;;;;5092095;28;20262;-52
2024/01/22 03:58:22;;;;;;;4.32;2.08;;;8.80;99.90;;;;;;5092158;28;20310;-53
2024/01/22 04:00:47;;;;;;;1.60;1.10;;;8.70;99.90;;;;;;5092615;28;20169;-53
2024/01/22 04:03:13;;;;;;;1.10;1.00;;;8.90;99.90;;;;;;5091993;28;20201;-53
2024/01/22 04:05:39;;;;;;;3.88;1.95;;;9.00;99.90;;;;;;5092110;28;20166;-52
2024/01/22 04:08:06;;;;;;;1.83;1.05;;;9.00;99.90;;;;;;5092254;28;20169;-52
2024/01/22 04:10:31;;;;;;;3.70;1.40;;;9.00;99.90;;;;;;5092026;28;20177;-53
2024/01/22 04:12:57;;;;;;;4.10;1.95;;;9.00;99.90;;;;;;5092273;28;20173;-53
2024/01/22 04:15:23;;;;;;;3.33;1.55;;;9.10;99.90;;;;;;5091852;28;20181;-53
2024/01/22 04:17:48;;;;;;;3.75;1.88;;;9.10;99.90;;;;;;5092537;28;20172;-54
2024/01/22 04:20:14;;;;;;;1.20;0.90;;;9.10;99.90;;;;;;5091812;28;20173;-54
2024/01/22 04:22:40;;;;;;;2.75;1.50;;;9.10;99.90;;;;;;5091640;28;20561;-54
2024/01/22 04:25:06;;;;;;;4.65;2.00;;;9.00;99.90;;;;;;5091809;28;20170;-54
2024/01/22 04:27:31;;;;;;;2.70;1.70;;;9.10;99.90;;;;;;5091739;28;20165;-53
2024/01/22 04:29:57;;;;;;;2.65;1.50;;;9.10;99.90;;;;;;5091644;28;20513;-54
2024/01/22 04:32:22;;;;;;;3.72;1.42;;;9.00;99.90;;;;;;5091856;28;20191;-53
2024/01/22 04:34:50;;;;;;;4.70;1.60;;;9.00;99.90;;;;;;5091580;28;20207;-53
2024/01/22 04:37:16;;;;;;;3.90;1.45;;;9.00;99.90;;;;;;5091834;28;20648;-54
2024/01/22 04:39:42;;;;;;;2.67;1.25;;;9.00;99.90;;;;;;5091490;28;20161;-54
2024/01/22 04:42:08;;;;;;;3.47;1.30;;;9.00;99.90;;;;;;5091425;28;20193;-53
2024/01/22 04:44:33;;;;;;;2.70;1.27;;;9.00;99.90;;;;;;5090937;28;20637;-54
2024/01/22 04:47:00;;;;;;;4.55;1.88;;;9.00;99.90;;;;;;5091534;28;20248;-54
2024/01/22 04:49:25;;;;;;;5.07;1.77;;;9.00;99.90;;;;;;5091441;28;20177;-53
2024/01/22 04:51:51;;;;;;;4.00;1.67;;;9.00;99.90;;;;;;5090982;28;20165;-54
2024/01/22 04:54:16;;;;;;;5.10;2.00;;;9.00;99.90;;;;;;5091528;28;20240;-53
2024/01/22 04:56:44;;;;;;;2.63;1.98;;;9.00;99.90;;;;;;5091250;28;20220;-54
2024/01/22 04:59:10;;;;;;;3.45;1.92;;;9.00;99.90;;;;;;5091184;28;20169;-54
2024/01/22 05:01:36;;;;;;;1.50;1.08;;;9.00;99.90;;;;;;5091131;28;20196;-54
2024/01/22 05:04:02;;;;;;;3.15;1.80;;;9.10;99.90;;;;;;5094043;28;20173;-53
2024/01/22 05:06:28;;;;;;;6.07;2.30;;;9.10;99.90;;;;;;5097929;28;20161;-54
2024/01/22 05:08:54;;;;;;;7.20;2.00;;;9.10;99.90;;;;;;5098346;28;20169;-52
2024/01/22 05:11:19;;;;;;;2.75;1.38;;;9.10;99.90;;;;;;5098540;28;20168;-51
2024/01/22 05:13:54;;;;;;;4.40;1.70;;;9.10;99.90;;;;;;5098417;28;20264;-51
2024/01/22 05:16:21;;;;;;;10.43;2.58;;;9.10;99.90;;;;;;5097879;28;20240;-51
2024/01/22 05:18:48;;;;;;;7.13;2.28;;;9.10;99.90;;;;;;5097053;28;20172;-51
2024/01/22 05:21:14;;;;;;;3.03;1.42;;;9.30;99.90;;;;;;5097709;28;20621;-51
2024/01/22 05:23:40;;;;;;;0.40;0.40;;;9.30;99.90;;;;;;5098089;28;20591;-52
2024/01/22 05:26:07;;;;;;;5.85;0.95;;;9.50;99.90;;;;;;5097544;28;20161;-51
2024/01/22 05:28:33;;;;;;;1.25;0.50;;;9.60;99.90;;;;;;5097327;28;20169;-50
2024/01/22 05:30:59;;;;;;;0.80;0.65;;;9.80;99.90;;;;;;5097429;28;20157;-51
2024/01/22 05:33:25;;;;;;;1.73;0.73;;;9.90;99.90;;;;;;5097970;28;20166;-51
2024/01/22 05:35:51;;;;;;;0.80;0.50;;;9.90;99.90;;;;;;5096340;28;20194;-52
2024/01/22 05:38:16;;;;;;;0.55;0.55;;;9.90;99.90;;;;;;5096523;28;20179;-51
2024/01/22 05:40:42;;;;;;;0.38;0.32;;;10.00;99.90;;;;;;5097697;28;20161;-52
2024/01/22 05:43:08;;;;;;;1.02;0.55;;;10.00;99.90;;;;;;5097612;28;20292;-52
2024/01/22 05:45:33;;;;;;;0.80;0.55;;;10.20;99.90;;;;;;5097563;28;20226;-53
2024/01/22 05:47:59;;;;;;;0.20;0.20;;;10.20;99.90;;;;;;5097606;28;20580;-55
2024/01/22 05:50:24;;;;;;;0.43;0.32;;;10.30;99.90;;;;;;5097583;28;20161;-54
2024/01/22 05:52:50;;;;;;;3.00;0.60;;;10.50;99.90;;;;;;5097091;28;20169;-53
2024/01/22 05:55:15;;;;;;;1.60;0.35;;;10.40;99.90;;;;;;5098060;28;20157;-53
2024/01/22 05:57:41;;;;;;;0.38;0.38;;;10.60;99.90;;;;;;5097315;28;20205;-54
2024/01/22 06:00:13;;;;;;;0.68;0.10;;;10.50;99.90;;;;;;5097499;28;20195;-53
2024/01/22 06:02:42;;;;;;;0.30;0.30;;;10.40;99.90;;;;;;5097616;28;20212;-53
2024/01/22 06:05:09;;;;;;;1.13;0.40;;;10.50;99.90;;;;;;5097464;28;20157;-53
2024/01/22 06:07:36;;;;;;;0.47;0.47;;;10.70;99.90;;;;;;5097535;28;20178;-54
2024/01/22 06:10:02;;;;;;;0.30;0.30;;;10.80;99.90;;;;;;5097371;28;20568;-55
2024/01/22 06:12:27;;;;;;;0.57;0.43;;;10.70;99.90;;;;;;5095187;28;20165;-53
2024/01/22 06:14:53;;;;;;;0.68;0.60;;;10.70;99.90;;;;;;5096228;28;20162;-54
2024/01/22 06:17:19;;;;;;;0.85;0.70;;;10.80;99.90;;;;;;5093795;28;20252;-53
2024/01/22 06:19:44;;;;;;;2.00;0.50;;;10.70;99.90;;;;;;5093049;28;20172;-54
2024/01/22 06:22:12;;;;;;;0.30;0.30;;;10.70;99.90;;;;;;5093686;28;20193;-55
2024/01/22 06:24:38;;;;;;;0.98;0.82;;;10.90;99.90;;;;;;5093771;28;20165;-54
2024/01/22 06:27:04;;;;;;;0.73;0.30;;;10.90;99.90;;;;;;5093874;28;20165;-55
2024/01/22 06:29:30;;;;;;;0.65;0.50;;;10.80;99.90;;;;;;5093861;28;20591;-52
2024/01/22 06:31:55;;;;;;;1.38;0.70;;;10.70;99.90;;;;;;5093821;28;20173;-55
2024/01/22 06:34:21;;;;;;;0.40;0.35;;;10.80;99.90;;;;;;5093697;28;20244;-54
2024/01/22 06:36:46;;;;;;;0.40;0.38;;;10.90;99.90;;;;;;5094153;28;20206;-54
2024/01/22 06:39:12;;;;;;;1.23;0.45;;;11.00;99.90;;;;;;5093675;28;20161;-54
2024/01/22 06:41:37;;;;;;;0.55;0.38;;;11.00;99.90;;;;;;5093480;28;20215;-55
2024/01/22 06:44:03;;;;;;;0.40;0.40;;;11.00;99.90;;;;;;5093739;28;20227;-54
2024/01/22 06:46:29;;;;;;;0.52;0.43;;;11.10;99.90;;;;;;5093873;28;20170;-53
2024/01/22 06:48:54;;;;;;;0.47;0.47;;;11.10;99.90;;;;;;5093575;28;20644;-53
2024/01/22 06:51:20;;;;;;;0.50;0.40;;;11.10;99.90;;;;;;5093546;28;20161;-54
2024/01/22 06:53:45;;;;;;;0.10;0.10;;;11.10;99.90;;;;;;5094025;28;20249;-52
2024/01/22 06:56:11;;;;;;;2.13;0.68;;;11.10;99.90;;;;;;5093323;28;20672;-52
2024/01/22 06:58:36;;;;;;;0.80;0.57;;;11.10;99.90;;;;;;5093371;28;20735;-54
2024/01/22 07:01:04;;;;;;;1.35;0.47;;;11.00;99.90;;;;;;5093332;28;20180;-55
2024/01/22 07:03:30;;;;;;;0.47;0.47;;;11.10;99.90;;;;;;5093465;28;20208;-54
2024/01/22 07:05:56;;;;;;;1.30;0.60;;;11.10;99.90;;;;;;5093431;28;20161;-53
2024/01/22 07:08:21;;;;;;;1.02;0.55;;;11.10;99.90;;;;;;5093192;28;20204;-55
2024/01/22 07:10:48;;;;;;;0.80;0.50;;;11.10;99.90;;;;;;5093621;28;20528;-52
2024/01/22 07:13:14;;;;;;;0.55;0.52;;;11.20;99.90;;;;;;5093348;28;20158;-55
2024/01/22 07:15:40;;;;;;;2.10;0.95;;;11.20;99.90;;;;;;5093088;28;20168;-54
2024/01/22 07:18:06;;;;;;;0.65;0.63;;;11.20;99.90;;;;;;5093315;28;20177;-51
2024/01/22 07:20:32;;;;;;;2.75;0.90;;;11.20;99.90;;;;;;5092973;28;20677;-55
2024/01/22 07:22:58;;;;;;;0.65;0.15;;;11.10;99.90;;;;;;5092827;28;20326;-53
2024/01/22 07:25:24;;;;;;;0.68;0.68;;;11.20;99.90;;;;;;5091742;28;20260;-55
2024/01/22 07:27:50;;;;;;;0.70;0.60;;;11.20;99.90;;;;;;5091944;28;20169;-54
2024/01/22 07:30:15;;;;;;;0.30;0.30;;;11.20;99.90;;;;;;5093243;28;20248;-55
2024/01/22 07:32:42;;;;;;;1.38;0.50;;;11.10;99.90;;;;;;5093019;28;20629;-55
2024/01/22 07:35:10;;;;;;;2.00;0.68;;;11.20;99.90;;;;;;5092676;28;20522;-55
2024/01/22 07:37:37;;;;;;;0.70;0.40;;;11.20;99.90;;;;;;5092818;28;20511;-55
2024/01/22 07:40:04;;;;;;;2.72;0.63;;;11.20;99.90;;;;;;5092606;28;20552;-55
2024/01/22 07:42:31;;;;;;;0.63;0.57;;;11.30;99.90;;;;;;5092699;28;20205;-55
2024/01/22 07:44:57;;;;;;;0.57;0.57;;;11.20;99.90;;;;;;5092692;28;20170;-51
2024/01/22 07:47:23;;;;;;;3.53;0.60;;;11.20;99.90;;;;;;5092341;28;20230;-51
2024/01/22 07:49:48;;;;;;;2.58;0.50;;;11.10;99.90;;;;;;5092838;28;20178;-52
2024/01/22 07:52:14;;;;;;;0.38;0.38;;;11.20;99.90;;;;;;5092653;28;20248;-51
2024/01/22 07:54:40;;;;;;;1.58;0.50;;;11.00;99.90;;;;;;5091427;28;20169;-52
2024/01/22 07:57:06;;;;;;;0.85;0.30;;;11.00;99.90;;;;;;5092050;28;20239;-56
2024/01/22 07:59:31;;;;;;;0.50;0.50;;;11.00;99.90;;;;;;5090989;28;20165;-56
2024/01/22 08:01:57;;;;;;;0.40;0.40;;;11.00;99.90;;;;;;5092136;28;20216;-53
2024/01/22 08:04:23;;;;;;;0.95;0.85;;;10.90;99.90;;;;;;5092033;28;20173;-53
2024/01/22 08:06:48;;;;;;;1.35;0.80;;;10.80;99.90;;;;;;5092609;28;20189;-53
2024/01/22 08:09:14;;;;;;;1.38;0.57;;;10.80;99.90;;;;;;5092518;28;20173;-53
2024/01/22 08:11:41;;;;;;;0.50;0.50;;;10.60;99.90;;;;;;5091975;28;20177;-52
2024/01/22 08:14:06;;;;;;;0.70;0.70;;;10.70;99.90;;;;;;5091921;28;20157;-53
2024/01/22 08:16:32;;;;;;;0.40;0.40;;;10.70;99.90;;;;;;5091948;28;20192;-53
2024/01/22 08:18:57;;;;;;;0.82;0.60;;;10.90;99.90;;;;;;5091928;28;20302;-53
2024/01/22 08:21:23;;;;;;;0.40;0.40;;;11.00;99.90;;;;;;5091775;28;20181;-53
2024/01/22 08:23:48;;;;;;;0.55;0.55;;;10.90;99.90;;;;;;5092348;28;20215;-52
2024/01/22 08:26:14;;;;;;;0.45;0.30;;;11.40;99.90;;;;;;5092197;28;20199;-54
2024/01/22 08:28:39;;;;;;;0.82;0.82;;;11.00;99.90;;;;;;5090437;28;20177;-53
2024/01/22 08:31:06;;;;;;;0.65;0.60;;;11.00;99.90;;;;;;5091650;28;20522;-53
2024/01/22 08:33:31;;;;;;;0.55;0.43;;;11.00;99.90;;;;;;5091908;28;20205;-53
2024/01/22 08:35:57;;;;;;;0.25;0.25;;;11.00;99.90;;;;;;5091594;28;20206;-53
2024/01/22 08:38:22;;;;;;;1.63;0.50;;;11.00;99.90;;;;;;5091188;28;20222;-53
2024/01/22 08:40:48;;;;;;;1.05;0.57;;;10.90;99.90;;;;;;5092226;28;20180;-52
2024/01/22 08:43:13;;;;;;;0.85;0.60;;;10.80;99.90;;;;;;5091642;28;20228;-48
2024/01/22 08:45:39;;;;;;;0.70;0.45;;;10.80;99.90;;;;;;5091427;28;20617;-50
2024/01/22 08:48:05;;;;;;;0.70;0.60;;;10.90;99.90;;;;;;5091443;28;20183;-52
2024/01/22 08:50:30;;;;;;;0.98;0.70;;;10.90;99.90;;;;;;5091519;28;20252;-52
2024/01/22 08:52:56;;;;;;;0.60;0.60;;;10.90;99.90;;;;;;5091383;28;20584;-51
2024/01/22 08:55:23;;;;;;;1.00;0.70;;;11.10;99.90;;;;;;5091284;28;20574;-53
2024/01/22 08:57:49;;;;;;;0.70;0.55;;;11.00;99.90;;;;;;5091599;28;20252;-51
2024/01/22 09:00:15;;;;;;;2.42;0.90;;;11.10;99.90;;;;;;5091996;28;20189;-51
2024/01/22 09:02:42;;;;;;;4.72;1.15;;;11.20;99.90;;;;;;5091145;28;20193;-53
2024/01/22 09:05:11;;;;;;;1.63;0.95;;;11.30;99.90;;;;;;5091264;28;20161;-53
2024/01/22 09:07:37;;;;;;;5.82;1.35;;;11.40;99.90;;;;;;5091112;28;20173;-52
2024/01/22 09:10:07;;;;;;;3.90;1.33;;;11.60;99.90;;;;;;5091451;28;20169;-52
2024/01/22 09:12:36;;;;;;;3.95;1.13;;;11.60;99.90;;;;;;5091176;28;20168;-52
2024/01/22 09:15:03;;;;;;;5.32;1.10;;;11.60;99.90;;;;;;5091087;28;20161;-51
2024/01/22 09:17:29;;;;;;;2.10;1.13;;;11.60;99.90;;;;;;5091070;28;20165;-52
2024/01/22 09:19:55;;;;;;;4.32;1.23;;;11.70;99.90;;;;;;5091366;28;20169;-52
2024/01/22 09:22:21;;;;;;;5.35;1.48;;;11.70;99.90;;;;;;5091186;28;20212;-52
2024/01/22 09:24:47;;;;;;;2.75;1.45;;;11.80;99.90;;;;;;5091767;28;20590;-52
2024/01/22 09:27:13;;;;;;;4.45;1.35;;;11.90;99.90;;;;;;5091136;28;20648;-57
2024/01/22 09:29:41;;;;;;;8.18;1.92;;;11.90;99.90;;;;;;5090973;28;20157;-58
2024/01/22 09:32:07;;;;;;;2.78;1.15;;;11.90;99.90;;;;;;5091333;28;20177;-58
2024/01/22 09:34:33;;;;;;;6.25;1.60;;;11.90;99.90;;;;;;5090994;28;20170;-57
2024/01/22 09:36:58;;;;;;;5.28;1.13;;;11.90;99.90;;;;;;5091247;28;20179;-58
2024/01/22 09:39:24;;;;;;;3.63;1.20;;;11.90;99.90;;;;;;5091089;28;20230;-58
2024/01/22 09:41:51;;;;;;;5.43;1.60;;;12.00;99.90;;;;;;5090818;28;20580;-57
2024/01/22 09:44:17;;;;;;;3.85;1.33;;;12.00;99.90;;;;;;5091573;28;20181;-57
2024/01/22 09:46:44;;;;;;;5.95;1.50;;;12.10;99.90;;;;;;5090796;28;20218;-58
2024/01/22 09:49:09;;;;;;;3.22;1.00;;;12.10;99.90;;;;;;5090858;28;20193;-56
2024/01/22 09:51:35;;;;;;;2.47;1.20;;;12.10;99.90;;;;;;5092960;28;20197;-53
2024/01/22 09:54:07;;;;;;;2.55;1.20;;;12.10;99.90;;;;;;5094855;28;20166;-53
2024/01/22 09:56:34;;;;;;;4.53;2.60;;;12.10;99.90;;;;;;5094360;28;20216;-52
2024/01/22 09:59:04;;;;;;;7.10;1.30;;;12.10;99.90;;;;;;5094558;28;20180;-52
2024/01/22 10:01:31;;;;;;;5.70;1.23;;;12.10;99.90;;;;;;5094338;28;20340;-53
2024/01/22 10:03:57;;;;;;;4.20;1.77;;;12.20;99.90;;;;;;5094400;28;20169;-52
2024/01/22 10:06:23;;;;;;;3.28;1.13;;;12.30;99.90;;;;;;5094673;28;20170;-51
2024/01/22 10:08:58;;;;;;;8.27;1.52;;;12.30;99.90;;;;;;5094369;28;20170;-52
2024/01/22 10:11:25;;;;;;;2.92;1.52;;;12.30;99.90;;;;;;5093122;28;20169;-52
2024/01/22 10:13:51;;;;;;;2.20;1.25;;;12.30;99.90;;;;;;5094377;28;20183;-52
2024/01/22 10:16:17;;;;;;;2.35;1.10;;;12.40;99.90;;;;;;5094846;28;20169;-52
2024/01/22 10:19:05;;;;;;;1.45;1.00;;;12.40;99.90;;;;;;5094461;28;20207;-52
2024/01/22 10:21:31;;;;;;;1.25;1.05;;;12.40;99.90;;;;;;5094178;28;20164;-52
2024/01/22 10:24:07;;;;;;;0.60;0.40;;;12.30;99.90;;;;;;5093062;28;20179;-53
2024/01/22 10:26:34;;;;;;;2.47;0.90;;;12.30;99.90;;;;;;5094052;28;20553;-52
2024/01/22 10:29:29;;;;;;;3.22;0.95;;;12.30;99.90;;;;;;5093699;28;20196;-52
2024/01/22 10:32:00;;;;;;;2.28;0.90;;;12.30;99.90;;;;;;5093156;28;20545;-51
2024/01/22 10:34:29;;;;;;;1.30;1.08;;;12.30;99.90;;;;;;5093932;28;20165;-53
2024/01/22 10:37:06;;;;;;;1.70;0.70;;;12.30;99.90;;;;;;5093773;28;20197;-52
2024/01/22 10:39:32;;;;;;;1.85;0.85;;;12.30;99.90;;;;;;5094062;28;20562;-52
2024/01/22 10:42:13;;;;;;;0.63;0.55;;;12.20;99.90;;;;;;5093704;28;20197;-52
2024/01/22 10:44:42;;;;;;;3.72;0.88;;;12.30;99.90;;;;;;5093738;28;20173;-52
2024/01/22 10:47:09;;;;;;;1.42;0.38;;;12.20;99.90;;;;;;5093468;28;20260;-51
2024/01/22 10:49:35;;;;;;;0.30;0.22;;;12.20;99.90;;;;;;5093556;28;20161;-52
2024/01/22 10:52:05;;;;;;;1.98;0.93;;;12.20;99.90;;;;;;5092201;28;20226;-50
2024/01/22 10:54:32;;;;;;;0.45;0.45;;;12.10;99.90;;;;;;5092274;28;20165;-53
2024/01/22 10:57:14;;;;;;;1.67;0.65;;;12.10;99.90;;;;;;5093403;28;20253;-58
2024/01/22 10:59:44;;;;;;;3.40;0.70;;;12.20;99.90;;;;;;5093113;28;20195;-54
2024/01/22 11:02:23;;;;;;;0.77;0.63;;;12.10;99.90;;;;;;5092643;28;20193;-58
2024/01/22 11:04:52;;;;;;;1.65;0.50;;;12.10;99.90;;;;;;5093786;28;20635;-53
2024/01/22 11:07:23;;;;;;;1.38;0.47;;;12.20;99.90;;;;;;5093638;28;20655;-56
2024/01/22 11:09:53;;;;;;;2.22;0.80;;;12.10;99.90;;;;;;5093374;28;20165;-56
2024/01/22 11:12:21;;;;;;;2.70;0.88;;;12.10;99.90;;;;;;5091609;28;20577;-53
2024/01/22 11:14:47;;;;;;;1.88;0.57;;;12.10;99.90;;;;;;5093428;28;20534;-57
2024/01/22 11:17:15;;;;;;;2.85;0.80;;;12.00;99.90;;;;;;5092305;28;20616;-57
2024/01/22 11:19:40;;;;;;;1.20;0.57;;;12.00;99.90;;;;;;5093022;28;20184;-54
2024/01/22 11:22:21;;;;;;;0.75;0.57;;;11.90;99.90;;;;;;5092882;28;20656;-54
2024/01/22 11:25:06;;;;;;;0.85;0.28;;;11.90;99.90;;;;;;5093410;28;20575;-57
2024/01/22 11:27:38;;;;;;;0.95;0.52;;;11.90;99.90;;;;;;5092828;28;20701;-53
2024/01/22 11:30:38;;;;;;;0.17;0.17;;;11.80;99.90;;;;;;5092856;28;20173;-53
2024/01/22 11:33:26;;;;;;;1.90;0.47;;;11.80;99.90;;;;;;5081212;28;20181;-53
2024/01/22 11:35:52;;;;;;;0.82;0.40;;;11.70;99.90;;;;;;5072424;28;20206;-56
2024/01/22 11:38:51;;;;;;;0.50;0.50;;;11.70;99.90;;;;;;5093052;28;20173;-54
2024/01/22 11:41:31;;;;;;;1.48;1.00;;;11.70;99.90;;;;;;5093313;28;20192;-54
2024/01/22 11:43:56;;;;;;;1.70;0.20;;;11.60;99.90;;;;;;5092484;28;20703;-53
2024/01/22 11:46:22;;;;;;;0.90;0.90;;;11.70;99.90;;;;;;5092443;28;20248;-52
2024/01/22 11:48:47;;;;;;;2.75;0.82;;;11.60;99.90;;;;;;5092669;28;20161;-54
2024/01/22 11:51:13;;;;;;;2.05;0.50;;;11.70;99.90;;;;;;5093040;28;20195;-53
2024/01/22 11:53:56;;;;;;;2.83;1.33;;;11.70;99.90;;;;;;5092276;28;20161;-53
2024/01/22 11:56:22;;;;;;;1.15;0.75;;;11.70;99.90;;;;;;5092161;28;20546;-58
2024/01/22 11:58:51;;;;;;;3.00;0.95;;;11.70;99.90;;;;;;5093028;28;20171;-58
2024/01/22 12:01:19;;;;;;;2.92;0.80;;;11.70;99.90;;;;;;5092893;28;20178;-58
2024/01/22 12:03:45;;;;;;;2.92;1.08;;;9.30;99.90;;;;;;5092948;28;20288;-55
2024/01/22 12:06:10;;;;;;;1.70;0.60;;;11.70;99.90;;;;;;5092052;28;20244;-57
2024/01/22 12:08:36;;;;;;;3.33;1.55;;;11.70;99.90;;;;;;5092481;28;20181;-58
2024/01/22 12:11:11;;;;;;;2.58;1.13;;;11.60;99.90;;;;;;5092351;28;20252;-58
2024/01/22 12:13:39;;;;;;;2.38;1.00;;;11.60;99.90;;;;;;5091337;28;20203;-58
2024/01/22 12:16:12;;;;;;;1.85;1.00;;;11.50;99.90;;;;;;5092150;28;20169;-58
2024/01/22 12:18:38;;;;;;;3.35;1.13;;;11.50;99.90;;;;;;5092006;28;20619;-58
2024/01/22 12:21:03;;;;;;;1.77;1.27;;;11.50;99.90;;;;;;5090605;28;20165;-58
2024/01/22 12:23:34;;;;;;;2.25;1.02;;;11.50;99.90;;;;;;5091571;28;20295;-58
2024/01/22 12:25:59;;;;;;;2.25;1.08;;;11.50;99.90;;;;;;5090691;28;20699;-53
2024/01/22 12:28:26;;;;;;;2.17;0.98;;;11.60;99.90;;;;;;5091406;28;20169;-56
2024/01/22 12:31:01;;;;;;;4.38;1.20;;;11.70;99.90;;;;;;5091430;28;20162;-54
2024/01/22 12:33:29;;;;;;;4.97;1.45;;;11.70;99.90;;;;;;5091398;28;20165;-65
2024/01/22 12:36:24;;;;;;;7.13;1.83;;;11.90;99.90;;;;;;5091331;28;20268;-60
2024/01/22 12:38:53;;;;;;;3.63;1.60;;;11.80;99.90;;;;;;5086235;28;20212;-55
2024/01/22 12:41:20;;;;;;;5.43;1.98;;;11.90;99.90;;;;;;5091598;28;20524;-51
2024/01/22 12:43:46;;;;;;;11.82;2.00;;;12.00;99.90;;;;;;5091779;28;20204;-58
2024/01/22 12:46:19;;;;;;;5.25;1.50;;;12.10;99.90;;;;;;5091252;28;20169;-57
2024/01/22 12:48:47;;;;;;;4.00;2.15;;;12.20;99.90;;;;;;5091280;28;20169;-58
2024/01/22 12:51:16;;;;;;;8.20;3.05;;;12.20;99.90;;;;;;5091182;28;20165;-57